Time;durP1;ratioP1;P1;durP2;ratioP2;P2;SDS_P1;SDS_P2;PMS_P1;PMS_P2;Temp;Humidity;BMP_temperature;BMP_pressure;BME280_temperature;BME280_humidity;BME280_pressure;Samples;Min_cycle;Max_cycle;Signal;HPM_P1;HPM_P2
2023/06/09 00:01:44;;;;;;;5.32;3.67;;;23.30;80.50;;;;;;6216044;23;20009;-78
2023/06/09 00:04:12;;;;;;;6.55;3.28;;;23.20;80.30;;;;;;6214432;23;20457;-78
2023/06/09 00:06:39;;;;;;;;;;;23.20;80.80;;;;;;6189902;23;20021;-79
2023/06/09 00:09:07;;;;;;;4.90;3.63;;;23.10;81.00;;;;;;6215065;23;20055;-79
2023/06/09 00:11:33;;;;;;;4.82;3.67;;;23.10;81.30;;;;;;6215094;23;20005;-79
2023/06/09 00:13:59;;;;;;;4.22;3.40;;;23.00;81.70;;;;;;6214858;23;20084;-78
2023/06/09 00:16:26;;;;;;;4.43;3.45;;;23.00;81.90;;;;;;6214822;23;20447;-79
2023/06/09 00:18:52;;;;;;;5.97;3.85;;;23.00;82.00;;;;;;6215364;23;20008;-79
2023/06/09 00:21:18;;;;;;;4.03;3.45;;;23.00;82.40;;;;;;6215022;23;19997;-78
2023/06/09 00:23:48;;;;;;;3.90;3.00;;;22.90;82.20;;;;;;6215176;23;20367;-78
2023/06/09 00:26:13;;;;;;;5.10;3.25;;;22.90;82.20;;;;;;6215122;23;20378;-78
2023/06/09 00:28:40;;;;;;;3.92;3.50;;;22.90;82.70;;;;;;6215611;23;20004;-79
2023/06/09 00:31:06;;;;;;;4.47;3.85;;;22.90;82.50;;;;;;6215832;23;20012;-79
2023/06/09 00:33:32;;;;;;;7.40;4.20;;;22.90;82.60;;;;;;6214605;23;20080;-79
2023/06/09 00:35:57;;;;;;;5.00;4.45;;;22.90;82.90;;;;;;6214977;23;20000;-79
2023/06/09 00:38:23;;;;;;;6.05;3.83;;;22.90;82.80;;;;;;6217138;23;20007;-79
2023/06/09 00:40:50;;;;;;;4.72;3.85;;;22.90;83.30;;;;;;6217067;23;20000;-79
2023/06/09 00:43:16;;;;;;;5.03;3.97;;;22.90;83.10;;;;;;6216748;23;20001;-80
2023/06/09 00:45:42;;;;;;;4.40;4.00;;;22.80;83.20;;;;;;6216998;23;20004;-79
2023/06/09 00:48:08;;;;;;;6.28;3.95;;;22.80;83.50;;;;;;6216876;23;20011;-79
2023/06/09 00:50:34;;;;;;;3.85;3.45;;;22.80;83.70;;;;;;6216932;23;20438;-80
2023/06/09 00:53:00;;;;;;;5.55;4.50;;;22.70;83.60;;;;;;6216612;23;20005;-80
2023/06/09 00:55:27;;;;;;;6.47;4.75;;;22.70;83.60;;;;;;6217007;23;20000;-80
2023/06/09 00:57:55;;;;;;;7.35;4.28;;;22.70;83.60;;;;;;6216922;23;20387;-80
2023/06/09 01:00:26;;;;;;;6.50;3.97;;;22.70;83.70;;;;;;6216888;23;20000;-79
2023/06/09 01:03:02;;;;;;;4.75;4.15;;;22.70;83.80;;;;;;6216390;23;20000;-79
2023/06/09 01:05:33;;;;;;;4.75;4.00;;;22.70;83.90;;;;;;6216865;23;20320;-79
2023/06/09 01:08:05;;;;;;;5.97;4.03;;;22.70;84.30;;;;;;6216938;23;20330;-79
2023/06/09 01:11:09;;;;;;;6.05;4.55;;;22.70;84.40;;;;;;6189927;23;20507;-79
2023/06/09 01:13:51;;;;;;;7.70;4.05;;;22.80;84.50;;;;;;6216018;23;20038;-80
2023/06/09 01:16:35;;;;;;;5.53;3.70;;;22.70;84.40;;;;;;6216157;23;20339;-79
2023/06/09 01:19:06;;;;;;;5.10;3.78;;;22.70;84.40;;;;;;6216683;23;20040;-79
2023/06/09 01:21:40;;;;;;;4.32;3.88;;;22.70;84.50;;;;;;6216882;23;20001;-79
2023/06/09 01:24:09;;;;;;;5.13;4.00;;;22.60;84.40;;;;;;6216076;23;20008;-79
2023/06/09 01:26:38;;;;;;;6.72;4.55;;;22.60;84.60;;;;;;6216419;23;20007;-79
2023/06/09 01:29:04;;;;;;;6.80;4.47;;;22.60;84.60;;;;;;6216975;23;20426;-79
2023/06/09 01:31:32;;;;;;;6.82;4.22;;;22.60;84.60;;;;;;6216656;23;20011;-79
2023/06/09 01:33:59;;;;;;;5.75;4.25;;;22.60;84.70;;;;;;6215935;23;20000;-78
2023/06/09 01:36:25;;;;;;;6.13;4.80;;;22.60;84.60;;;;;;6216748;23;20001;-79
2023/06/09 01:38:50;;;;;;;6.20;4.65;;;22.60;84.70;;;;;;6216376;23;20039;-79
2023/06/09 01:41:16;;;;;;;4.95;4.20;;;22.60;84.70;;;;;;6216279;23;20076;-79
2023/06/09 01:43:42;;;;;;;4.97;4.47;;;22.60;84.90;;;;;;6215977;23;20319;-80
2023/06/09 01:46:08;;;;;;;4.05;3.65;;;22.60;84.90;;;;;;6216092;23;20004;-79
2023/06/09 01:49:04;;;;;;;6.20;4.63;;;22.50;85.10;;;;;;6215872;23;20334;-80
2023/06/09 01:51:51;;;;;;;6.18;4.47;;;22.50;85.10;;;;;;6214631;23;20016;-79
2023/06/09 01:54:24;;;;;;;5.05;4.55;;;22.50;85.50;;;;;;6214324;23;20014;-79
2023/06/09 01:57:04;;;;;;;5.78;4.47;;;22.40;85.50;;;;;;6214376;23;20764;-79
2023/06/09 01:59:35;;;;;;;;;;;22.40;85.50;;;;;;6216842;23;20001;-79
2023/06/09 02:02:03;;;;;;;5.35;4.78;;;22.40;85.60;;;;;;6216444;23;19907;-79
2023/06/09 02:04:30;;;;;;;6.30;4.57;;;22.30;85.70;;;;;;6215147;23;20004;-78
2023/06/09 02:06:57;;;;;;;5.55;4.72;;;22.30;85.70;;;;;;6215353;23;20000;-78
2023/06/09 02:09:23;;;;;;;5.82;5.10;;;22.30;85.60;;;;;;6215733;23;20016;-79
2023/06/09 02:11:52;;;;;;;6.80;4.82;;;22.30;85.80;;;;;;6215881;23;20339;-80
2023/06/09 02:14:18;;;;;;;7.40;5.30;;;22.30;85.90;;;;;;6215441;23;20008;-80
2023/06/09 02:16:47;;;;;;;6.00;5.40;;;22.30;85.80;;;;;;6215752;23;20008;-81
2023/06/09 02:19:13;;;;;;;6.78;5.00;;;22.30;85.90;;;;;;6215750;23;20000;-80
2023/06/09 02:21:39;;;;;;;5.43;4.80;;;22.30;85.90;;;;;;6215579;23;20000;-80
2023/06/09 02:24:05;;;;;;;6.25;5.32;;;22.30;86.10;;;;;;6213979;23;20009;-79
2023/06/09 02:26:31;;;;;;;6.57;5.63;;;22.30;86.20;;;;;;6215716;23;20009;-79
2023/06/09 02:28:57;;;;;;;6.70;5.50;;;22.20;86.90;;;;;;6215446;23;20442;-79
2023/06/09 02:31:23;;;;;;;6.55;4.85;;;22.10;86.40;;;;;;6215654;23;20000;-79
2023/06/09 02:33:48;;;;;;;7.22;5.90;;;22.10;86.60;;;;;;6215312;23;20008;-79
2023/06/09 02:36:15;;;;;;;6.63;5.28;;;22.10;87.00;;;;;;6213991;23;20011;-79
2023/06/09 02:38:41;;;;;;;6.93;5.85;;;22.00;87.10;;;;;;6214921;23;20043;-79
2023/06/09 02:41:07;;;;;;;9.20;6.10;;;22.00;87.30;;;;;;6215349;23;20001;-79
2023/06/09 02:43:32;;;;;;;9.15;5.47;;;21.90;87.80;;;;;;6214594;23;20439;-79
2023/06/09 02:45:58;;;;;;;6.93;5.45;;;21.90;87.40;;;;;;6214565;23;20000;-78
2023/06/09 02:48:23;;;;;;;8.70;5.82;;;21.90;88.00;;;;;;6214895;23;20009;-79
2023/06/09 02:50:49;;;;;;;7.35;5.35;;;22.00;87.70;;;;;;6215394;23;20004;-79
2023/06/09 02:53:15;;;;;;;11.50;7.00;;;21.90;87.70;;;;;;6214730;23;20001;-80
2023/06/09 02:55:44;;;;;;;7.78;6.25;;;21.90;88.20;;;;;;6215259;23;20075;-81
2023/06/09 02:58:14;;;;;;;9.85;7.60;;;21.90;88.50;;;;;;6215158;23;20438;-80
2023/06/09 03:00:44;;;;;;;7.03;5.70;;;21.90;88.30;;;;;;6212651;23;20086;-79
2023/06/09 03:03:11;;;;;;;7.40;5.97;;;21.90;88.30;;;;;;6214245;23;20474;-79
2023/06/09 03:05:40;;;;;;;10.30;6.93;;;21.80;88.20;;;;;;6214601;23;20433;-80
2023/06/09 03:08:09;;;;;;;6.63;5.75;;;21.80;88.40;;;;;;6215657;23;20051;-80
2023/06/09 03:10:35;;;;;;;7.15;6.10;;;21.80;88.20;;;;;;6215168;23;20423;-80
2023/06/09 03:13:00;;;;;;;6.13;5.10;;;21.80;88.30;;;;;;6214508;23;20004;-81
2023/06/09 03:15:26;;;;;;;7.10;6.03;;;21.80;88.50;;;;;;6217290;23;20035;-81
2023/06/09 03:17:52;;;;;;;7.97;6.38;;;21.80;88.80;;;;;;6214133;23;20058;-81
2023/06/09 03:20:19;;;;;;;7.57;6.45;;;21.80;88.50;;;;;;6215223;23;20001;-81
2023/06/09 03:22:45;;;;;;;8.68;7.47;;;21.80;88.60;;;;;;6215287;23;20175;-81
2023/06/09 03:25:12;;;;;;;7.38;6.18;;;21.90;89.00;;;;;;6213430;23;20024;-81
2023/06/09 03:27:38;;;;;;;7.18;6.38;;;21.80;88.70;;;;;;6215051;23;20008;-80
2023/06/09 03:30:05;;;;;;;11.90;6.80;;;21.80;88.80;;;;;;6215121;23;19997;-80
2023/06/09 03:32:31;;;;;;;10.50;7.50;;;21.80;88.90;;;;;;6213990;23;20359;-80
2023/06/09 03:34:57;;;;;;;9.07;6.40;;;21.80;89.00;;;;;;6213838;23;20080;-80
2023/06/09 03:37:22;;;;;;;7.40;6.70;;;21.80;89.40;;;;;;6212373;23;20407;-80
2023/06/09 03:39:48;;;;;;;10.25;8.38;;;21.80;89.50;;;;;;6213880;23;20303;-80
2023/06/09 03:42:14;;;;;;;8.75;6.75;;;21.80;89.80;;;;;;6215543;23;20094;-79
2023/06/09 03:44:40;;;;;;;7.88;7.03;;;21.80;89.40;;;;;;6214382;23;20426;-79
2023/06/09 03:47:06;;;;;;;8.27;6.95;;;21.90;89.50;;;;;;6214737;23;20004;-79
2023/06/09 03:49:32;;;;;;;7.75;6.47;;;21.90;89.50;;;;;;6215177;23;20001;-78
2023/06/09 03:51:57;;;;;;;6.97;6.10;;;21.90;89.50;;;;;;6215509;23;20004;-78
2023/06/09 03:54:23;;;;;;;7.75;6.82;;;21.90;89.50;;;;;;6213887;23;20058;-79
2023/06/09 03:56:49;;;;;;;8.20;6.93;;;21.90;89.50;;;;;;6216644;23;20003;-78
2023/06/09 03:59:15;;;;;;;8.95;6.60;;;21.90;89.60;;;;;;6215304;23;20415;-78
2023/06/09 04:01:40;;;;;;;7.35;6.28;;;21.90;89.60;;;;;;6215253;23;20005;-78
2023/06/09 04:04:06;;;;;;;7.00;6.30;;;21.90;89.70;;;;;;6214700;23;20672;-78
2023/06/09 04:06:32;;;;;;;6.97;6.18;;;21.90;89.60;;;;;;6227417;23;20427;-79
2023/06/09 04:08:57;;;;;;;9.93;7.43;;;22.00;89.80;;;;;;6222637;23;20431;-79
2023/06/09 04:11:23;;;;;;;7.85;7.10;;;21.90;89.80;;;;;;6220457;23;20071;-79
2023/06/09 04:13:49;;;;;;;8.00;6.32;;;21.90;90.00;;;;;;6216181;23;20013;-79
2023/06/09 04:16:16;;;;;;;7.80;6.43;;;21.90;89.90;;;;;;6216642;23;20015;-79
2023/06/09 04:18:42;;;;;;;6.95;6.05;;;21.90;90.30;;;;;;6217820;23;20031;-81
2023/06/09 04:21:08;;;;;;;9.63;6.70;;;21.80;90.10;;;;;;6221040;23;19996;-82
2023/06/09 04:23:34;;;;;;;11.80;10.52;;;21.80;90.20;;;;;;6224772;23;20019;-82
2023/06/09 04:26:00;;;;;;;10.05;8.05;;;21.80;90.40;;;;;;6219524;23;20084;-82
2023/06/09 04:28:28;;;;;;;8.60;7.38;;;21.70;90.40;;;;;;6217423;23;20419;-78
2023/06/09 04:30:54;;;;;;;8.02;6.60;;;21.60;90.30;;;;;;6216669;23;20493;-78
2023/06/09 04:33:19;;;;;;;7.13;6.40;;;21.70;90.40;;;;;;6216236;23;20001;-78
2023/06/09 04:35:46;;;;;;;12.15;7.05;;;21.60;90.40;;;;;;6216056;23;20005;-78
2023/06/09 04:38:12;;;;;;;8.55;7.32;;;21.60;90.40;;;;;;6216426;23;20004;-78
2023/06/09 04:40:39;;;;;;;7.72;6.93;;;21.60;90.60;;;;;;6215415;23;19997;-77
2023/06/09 04:43:07;;;;;;;9.43;7.57;;;21.70;90.50;;;;;;6215056;23;20024;-77
2023/06/09 04:45:35;;;;;;;7.32;6.32;;;21.70;90.50;;;;;;6214368;23;20035;-77
2023/06/09 04:48:02;;;;;;;9.07;7.07;;;21.70;90.70;;;;;;6213827;23;20493;-77
2023/06/09 04:50:33;;;;;;;8.95;7.18;;;21.70;90.40;;;;;;6215973;23;20009;-77
2023/06/09 04:53:03;;;;;;;8.45;6.88;;;21.70;90.40;;;;;;6221342;23;20024;-84
2023/06/09 04:55:29;;;;;;;7.97;6.38;;;21.80;90.60;;;;;;6217587;23;20001;-78
2023/06/09 04:57:56;;;;;;;6.88;5.72;;;21.80;90.30;;;;;;6216245;23;20001;-78
2023/06/09 05:00:31;;;;;;;7.53;6.50;;;21.90;90.30;;;;;;6216244;23;19996;-76
2023/06/09 05:03:05;;;;;;;9.18;5.63;;;21.90;90.20;;;;;;6216379;23;20050;-82
2023/06/09 05:05:31;;;;;;;7.90;6.35;;;22.00;90.30;;;;;;6217454;23;20005;-77
2023/06/09 05:07:56;;;;;;;7.13;5.60;;;22.00;90.20;;;;;;6215427;23;20027;-78
2023/06/09 05:10:22;;;;;;;6.32;5.50;;;22.00;90.10;;;;;;6216204;23;20001;-78
2023/06/09 05:12:49;;;;;;;6.05;5.22;;;22.00;90.10;;;;;;6217360;23;20027;-78
2023/06/09 05:15:15;;;;;;;10.65;7.22;;;22.00;90.10;;;;;;6216867;23;20028;-77
2023/06/09 05:17:44;;;;;;;9.77;6.72;;;22.00;90.30;;;;;;6217966;23;20019;-77
2023/06/09 05:20:10;;;;;;;6.78;6.07;;;22.00;90.40;;;;;;6217348;23;20025;-78
2023/06/09 05:22:36;;;;;;;14.85;8.60;;;21.90;90.40;;;;;;6216235;23;20001;-77
2023/06/09 05:25:08;;;;;;;8.75;6.50;;;21.90;90.50;;;;;;6217942;23;20012;-77
2023/06/09 05:27:33;;;;;;;9.13;7.50;;;21.80;90.40;;;;;;6218486;23;20015;-77
2023/06/09 05:29:59;;;;;;;7.75;6.22;;;21.90;90.60;;;;;;6214579;23;20043;-77
2023/06/09 05:32:25;;;;;;;8.38;5.80;;;21.80;90.60;;;;;;6214783;23;20143;-78
2023/06/09 05:34:50;;;;;;;8.35;6.47;;;21.80;90.70;;;;;;6216533;23;20441;-78
2023/06/09 05:37:16;;;;;;;6.07;5.47;;;21.90;90.60;;;;;;6215654;23;20030;-78
2023/06/09 05:39:42;;;;;;;10.38;5.90;;;21.90;90.60;;;;;;6215939;23;19997;-78
2023/06/09 05:42:08;;;;;;;8.25;5.93;;;21.90;90.70;;;;;;6216298;23;20327;-77
2023/06/09 05:44:34;;;;;;;6.78;5.70;;;21.90;90.70;;;;;;6216121;23;20001;-77
2023/06/09 05:47:00;;;;;;;7.00;5.13;;;22.00;90.60;;;;;;6216440;23;20000;-77
2023/06/09 05:49:26;;;;;;;7.13;5.57;;;22.10;90.50;;;;;;6213807;23;20008;-78
2023/06/09 05:51:51;;;;;;;7.32;5.05;;;22.10;90.40;;;;;;6215087;23;20323;-78
2023/06/09 05:54:18;;;;;;;8.15;6.47;;;22.20;90.30;;;;;;6216027;23;20392;-77
2023/06/09 05:56:45;;;;;;;9.32;5.20;;;22.30;90.20;;;;;;6214166;23;20429;-78
2023/06/09 05:59:12;;;;;;;6.28;4.82;;;22.30;90.10;;;;;;6216261;23;20004;-79
2023/06/09 06:01:37;;;;;;;6.90;6.00;;;22.40;90.10;;;;;;6215667;23;20058;-79
2023/06/09 06:04:03;;;;;;;6.93;5.60;;;22.40;90.10;;;;;;6215877;23;20083;-79
2023/06/09 06:06:30;;;;;;;8.45;5.05;;;22.40;90.00;;;;;;6216556;23;20043;-78
2023/06/09 06:08:56;;;;;;;6.07;4.20;;;22.50;89.80;;;;;;6216301;23;20004;-78
2023/06/09 06:11:21;;;;;;;5.20;4.70;;;22.50;89.70;;;;;;6215555;23;20008;-78
2023/06/09 06:13:47;;;;;;;7.60;4.72;;;22.60;89.70;;;;;;6215499;23;20011;-78
2023/06/09 06:16:13;;;;;;;6.07;4.50;;;22.60;89.50;;;;;;6215389;23;20009;-78
2023/06/09 06:18:38;;;;;;;5.65;4.47;;;22.60;89.30;;;;;;6216262;23;19996;-78
2023/06/09 06:21:04;;;;;;;6.03;4.70;;;22.70;89.30;;;;;;6216326;23;20007;-78
2023/06/09 06:23:31;;;;;;;4.85;4.35;;;22.80;89.40;;;;;;6216100;23;20008;-78
2023/06/09 06:25:57;;;;;;;6.15;4.68;;;22.80;89.10;;;;;;6215958;23;20008;-78
2023/06/09 06:28:23;;;;;;;5.95;4.70;;;22.90;88.90;;;;;;6216326;23;20005;-78
2023/06/09 06:30:50;;;;;;;6.68;4.85;;;22.90;88.90;;;;;;6215800;23;20011;-78
2023/06/09 06:33:16;;;;;;;5.53;4.50;;;23.00;89.10;;;;;;6215779;23;20000;-77
2023/06/09 06:35:42;;;;;;;5.85;4.80;;;23.10;88.90;;;;;;6215584;23;20004;-78
2023/06/09 06:38:07;;;;;;;8.60;5.00;;;23.10;88.60;;;;;;6216073;23;20084;-78
2023/06/09 06:40:33;;;;;;;5.95;4.68;;;23.20;88.50;;;;;;6215875;23;20000;-78
2023/06/09 06:42:59;;;;;;;5.78;4.60;;;23.30;88.70;;;;;;6216301;23;20001;-78
2023/06/09 06:45:26;;;;;;;5.95;4.53;;;23.30;88.20;;;;;;6215458;23;20096;-78
2023/06/09 06:47:53;;;;;;;5.80;4.78;;;23.40;88.10;;;;;;6215848;23;20003;-78
2023/06/09 06:50:19;;;;;;;5.75;4.90;;;23.40;88.00;;;;;;6215745;23;20004;-78
2023/06/09 06:52:46;;;;;;;5.13;4.57;;;23.40;87.90;;;;;;6215806;23;20299;-78
2023/06/09 06:55:11;;;;;;;6.22;4.78;;;23.40;87.70;;;;;;6215781;23;20408;-79
2023/06/09 06:57:38;;;;;;;7.22;5.55;;;23.50;87.80;;;;;;6215856;23;20011;-78
2023/06/09 07:00:12;;;;;;;6.15;4.15;;;23.50;87.80;;;;;;6214667;23;20012;-78
2023/06/09 07:02:38;;;;;;;7.05;6.35;;;23.50;87.70;;;;;;6215522;23;20311;-76
2023/06/09 07:05:06;;;;;;;5.35;4.53;;;23.60;87.70;;;;;;6214526;23;20004;-77
2023/06/09 07:07:32;;;;;;;7.55;4.85;;;23.70;87.30;;;;;;6216367;23;20028;-78
2023/06/09 07:09:58;;;;;;;7.85;4.53;;;23.80;87.10;;;;;;6215506;23;20063;-79
2023/06/09 07:12:24;;;;;;;4.57;4.18;;;23.80;87.00;;;;;;6216394;23;20004;-78
2023/06/09 07:14:50;;;;;;;8.48;5.00;;;23.80;86.50;;;;;;6216018;23;20000;-78
2023/06/09 07:17:16;;;;;;;6.40;4.15;;;23.90;86.50;;;;;;6214272;23;20093;-78
2023/06/09 07:19:41;;;;;;;5.72;4.50;;;23.90;86.40;;;;;;6213245;23;20004;-79
2023/06/09 07:22:08;;;;;;;6.57;5.00;;;23.90;86.60;;;;;;6215938;23;19996;-76
2023/06/09 07:24:34;;;;;;;6.15;5.35;;;24.00;86.50;;;;;;6214688;23;20004;-77
2023/06/09 07:26:59;;;;;;;5.00;4.45;;;24.00;86.70;;;;;;6215560;23;20288;-77
2023/06/09 07:29:25;;;;;;;6.07;5.30;;;24.10;86.50;;;;;;6215896;23;20008;-77
2023/06/09 07:31:52;;;;;;;6.55;4.85;;;24.20;86.40;;;;;;6215065;23;20008;-76
2023/06/09 07:34:18;;;;;;;4.85;4.20;;;24.30;86.10;;;;;;6214697;23;20051;-76
2023/06/09 07:36:50;;;;;;;5.68;4.07;;;24.40;85.80;;;;;;6214966;23;20080;-77
2023/06/09 07:39:17;;;;;;;6.20;4.32;;;24.40;85.20;;;;;;6215278;23;20001;-77
2023/06/09 07:41:42;;;;;;;4.95;4.22;;;24.50;84.80;;;;;;6215597;23;20007;-77
2023/06/09 07:44:08;;;;;;;6.60;4.97;;;24.60;84.80;;;;;;6213052;23;20032;-76
2023/06/09 07:46:34;;;;;;;4.70;3.80;;;24.60;84.50;;;;;;6215250;23;20423;-76
2023/06/09 07:49:00;;;;;;;5.30;4.20;;;24.70;84.20;;;;;;6217775;23;20004;-77
2023/06/09 07:51:26;;;;;;;4.05;3.33;;;24.70;82.70;;;;;;6217923;23;20065;-77
2023/06/09 07:53:52;;;;;;;4.18;3.38;;;24.70;82.80;;;;;;6217737;23;20004;-81
2023/06/09 07:56:18;;;;;;;3.70;3.20;;;24.80;82.90;;;;;;6217672;23;20028;-81
2023/06/09 07:58:44;;;;;;;3.95;3.50;;;24.90;82.60;;;;;;6217393;23;19997;-81
2023/06/09 08:01:09;;;;;;;3.90;3.22;;;24.90;82.20;;;;;;6216808;23;20058;-81
2023/06/09 08:03:35;;;;;;;4.65;3.72;;;25.00;81.90;;;;;;6217704;23;20000;-80
2023/06/09 08:06:02;;;;;;;5.38;3.55;;;25.10;81.50;;;;;;6218128;23;20005;-81
2023/06/09 08:08:31;;;;;;;4.63;3.80;;;25.10;80.60;;;;;;6217643;23;20395;-80
2023/06/09 08:11:00;;;;;;;6.93;4.35;;;25.20;80.90;;;;;;6218385;23;20009;-79
2023/06/09 08:13:26;;;;;;;4.70;3.47;;;25.20;81.10;;;;;;6217819;23;20009;-80
2023/06/09 08:15:52;;;;;;;6.43;4.60;;;25.20;81.00;;;;;;6215893;23;20000;-79
2023/06/09 08:18:18;;;;;;;4.20;3.78;;;25.20;81.40;;;;;;6217944;23;20080;-79
2023/06/09 08:20:43;;;;;;;5.93;5.40;;;25.20;81.60;;;;;;6217394;23;19997;-80
2023/06/09 08:23:10;;;;;;;5.38;4.20;;;25.20;82.00;;;;;;6217771;23;20461;-79
2023/06/09 08:25:36;;;;;;;7.07;3.50;;;25.30;82.20;;;;;;6217041;23;20485;-79
2023/06/09 08:28:02;;;;;;;5.28;3.58;;;25.40;82.40;;;;;;6217153;23;20024;-79
2023/06/09 08:30:28;;;;;;;6.20;5.00;;;25.50;82.90;;;;;;6217365;23;20059;-79
2023/06/09 08:32:53;;;;;;;4.80;4.30;;;25.50;82.10;;;;;;6215479;23;20139;-79
2023/06/09 08:35:21;;;;;;;4.50;3.60;;;25.60;82.00;;;;;;6217105;23;20423;-78
2023/06/09 08:37:47;;;;;;;4.25;3.60;;;25.70;82.00;;;;;;6217009;23;20000;-78
2023/06/09 08:40:13;;;;;;;4.45;3.50;;;25.70;82.20;;;;;;6216554;23;19997;-80
2023/06/09 08:42:40;;;;;;;6.65;3.70;;;25.80;82.00;;;;;;6216443;23;20071;-80
2023/06/09 08:45:07;;;;;;;5.05;4.05;;;25.90;81.90;;;;;;6215453;23;20007;-78
2023/06/09 08:47:33;;;;;;;4.35;3.88;;;26.00;82.10;;;;;;6216987;23;20005;-76
2023/06/09 08:50:02;;;;;;;5.65;4.07;;;26.00;82.20;;;;;;6214306;23;20007;-76
2023/06/09 08:52:29;;;;;;;4.78;4.10;;;26.10;82.10;;;;;;6215093;23;20376;-77
2023/06/09 08:54:57;;;;;;;5.03;4.50;;;26.20;82.60;;;;;;6214288;23;20004;-77
2023/06/09 08:57:24;;;;;;;8.73;4.97;;;26.30;82.30;;;;;;6216070;23;20055;-79
2023/06/09 08:59:50;;;;;;;5.25;4.30;;;26.30;82.70;;;;;;6215927;23;20061;-78
2023/06/09 09:02:16;;;;;;;5.13;3.60;;;26.40;82.20;;;;;;6216377;23;20001;-79
2023/06/09 09:04:45;;;;;;;3.33;3.03;;;26.50;81.40;;;;;;6216482;23;20000;-79
2023/06/09 09:07:12;;;;;;;5.82;2.95;;;26.50;80.90;;;;;;6216325;23;20005;-79
2023/06/09 09:09:38;;;;;;;5.57;4.28;;;26.60;81.10;;;;;;6215753;23;20004;-79
2023/06/09 09:12:05;;;;;;;4.15;3.75;;;26.70;80.20;;;;;;6216189;23;20001;-78
2023/06/09 09:14:31;;;;;;;3.50;3.20;;;26.70;80.00;;;;;;6216264;23;20054;-79
2023/06/09 09:16:57;;;;;;;4.15;3.75;;;26.80;79.80;;;;;;6215655;23;20012;-79
2023/06/09 09:19:30;;;;;;;4.63;4.15;;;26.80;78.80;;;;;;6216022;23;20398;-79
2023/06/09 09:21:56;;;;;;;6.03;3.35;;;26.80;77.00;;;;;;6216271;23;20039;-78
2023/06/09 09:24:31;;;;;;;4.32;3.92;;;26.80;78.20;;;;;;6215603;23;20005;-78
2023/06/09 09:26:57;;;;;;;5.50;3.53;;;26.90;77.70;;;;;;6215945;23;20009;-78
2023/06/09 09:29:26;;;;;;;3.10;2.80;;;26.90;77.70;;;;;;6215824;23;20047;-78
2023/06/09 09:31:58;;;;;;;3.58;3.15;;;26.90;78.10;;;;;;6216328;23;20005;-79
2023/06/09 09:34:25;;;;;;;3.35;2.97;;;27.00;77.80;;;;;;6215923;23;20339;-78
2023/06/09 09:36:55;;;;;;;4.47;3.13;;;27.10;77.70;;;;;;6215549;23;20028;-79
2023/06/09 09:39:21;;;;;;;;;;;27.20;77.00;;;;;;6188763;23;20004;-78
2023/06/09 09:42:01;;;;;;;3.25;2.92;;;27.30;76.30;;;;;;6214949;23;20227;-79
2023/06/09 09:44:38;;;;;;;4.15;3.15;;;27.30;76.10;;;;;;6215351;23;20058;-79
2023/06/09 09:47:05;;;;;;;5.22;3.15;;;27.40;76.60;;;;;;6215419;23;20001;-79
2023/06/09 09:49:31;;;;;;;5.40;3.28;;;27.50;76.60;;;;;;6216329;23;20453;-79
2023/06/09 09:51:58;;;;;;;4.28;3.60;;;27.60;76.60;;;;;;6216126;23;20001;-79
2023/06/09 09:54:27;;;;;;;4.18;3.40;;;27.70;75.70;;;;;;6215613;23;20415;-79
2023/06/09 09:57:00;;;;;;;4.43;3.33;;;27.80;75.00;;;;;;6215929;23;19997;-78
2023/06/09 09:59:26;;;;;;;3.85;3.45;;;27.70;74.50;;;;;;6190175;23;20011;-78
2023/06/09 10:01:55;;;;;;;6.50;3.38;;;27.80;74.90;;;;;;6216837;23;20025;-79
2023/06/09 10:04:23;;;;;;;5.63;4.20;;;27.90;75.30;;;;;;6216730;23;20004;-79
2023/06/09 10:07:01;;;;;;;5.10;3.53;;;27.90;74.70;;;;;;6217070;23;20007;-79
2023/06/09 10:09:27;;;;;;;10.55;4.28;;;28.10;74.60;;;;;;6188620;23;20012;-79
2023/06/09 10:11:55;;;;;;;7.32;4.47;;;28.10;74.30;;;;;;6216193;23;20005;-80
2023/06/09 10:14:22;;;;;;;7.53;5.78;;;28.20;74.40;;;;;;6216253;23;20004;-80
2023/06/09 10:16:51;;;;;;;6.28;4.40;;;28.30;74.00;;;;;;6216490;23;20100;-80
2023/06/09 10:19:18;;;;;;;3.65;3.33;;;28.40;74.30;;;;;;6188226;23;20415;-80
2023/06/09 10:21:46;;;;;;;5.35;3.88;;;28.40;74.80;;;;;;6188237;23;20004;-79
2023/06/09 10:24:12;;;;;;;4.95;3.92;;;28.60;74.80;;;;;;6216519;23;20001;-79
2023/06/09 10:26:38;;;;;;;4.30;3.67;;;28.70;74.30;;;;;;6215938;23;20004;-79
2023/06/09 10:29:09;;;;;;;5.50;3.63;;;28.80;73.70;;;;;;6215559;23;20419;-79
2023/06/09 10:31:41;;;;;;;4.05;3.22;;;28.90;73.50;;;;;;6215948;23;20001;-79
2023/06/09 10:34:08;;;;;;;4.15;3.13;;;29.00;73.00;;;;;;6215839;23;20001;-80
2023/06/09 10:36:38;;;;;;;5.40;3.08;;;29.10;72.70;;;;;;6215685;23;20000;-79
2023/06/09 10:39:17;;;;;;;6.00;3.28;;;29.20;72.30;;;;;;6215613;23;20004;-78
2023/06/09 10:42:05;;;;;;;3.67;3.38;;;29.30;71.10;;;;;;6215777;23;20000;-79
2023/06/09 10:45:03;;;;;;;8.95;3.72;;;29.40;71.70;;;;;;6216254;23;20095;-79
2023/06/09 10:47:44;;;;;;;5.03;3.65;;;29.50;71.80;;;;;;6150085;23;20445;-79
2023/06/09 10:50:30;;;;;;;5.57;3.25;;;29.60;71.20;;;;;;6216214;23;20008;-79
2023/06/09 10:52:59;;;;;;;4.30;3.35;;;29.70;70.30;;;;;;6216413;23;20525;-79
2023/06/09 10:55:30;;;;;;;5.50;3.58;;;29.80;69.60;;;;;;6215959;23;20005;-79
2023/06/09 10:57:57;;;;;;;4.25;3.60;;;30.00;69.60;;;;;;6216350;23;20020;-78
2023/06/09 11:01:07;;;;;;;4.97;3.15;;;30.00;68.90;;;;;;6216019;23;20012;-79
2023/06/09 11:03:33;;;;;;;;;;;30.20;67.90;;;;;;6215931;23;20004;-79
2023/06/09 11:06:00;;;;;;;2.85;2.58;;;30.30;66.60;;;;;;6213164;23;20313;-79
2023/06/09 11:08:26;;;;;;;3.67;2.55;;;30.30;67.30;;;;;;6215120;23;20014;-79
2023/06/09 11:10:52;;;;;;;5.05;3.90;;;30.50;67.20;;;;;;6213472;23;20004;-79
2023/06/09 11:13:39;;;;;;;4.72;2.97;;;30.60;65.60;;;;;;6215354;23;20028;-78
2023/06/09 11:16:08;;;;;;;3.28;2.40;;;30.70;64.00;;;;;;6215492;23;20070;-79
2023/06/09 11:18:35;;;;;;;3.47;2.53;;;30.70;65.00;;;;;;6215644;23;19996;-80
2023/06/09 11:21:19;;;;;;;3.70;2.80;;;30.80;64.80;;;;;;6213158;23;20005;-79
2023/06/09 11:24:02;;;;;;;3.00;2.30;;;31.00;64.00;;;;;;6215545;23;20044;-79
2023/06/09 11:26:30;;;;;;;2.63;2.20;;;31.10;64.50;;;;;;6213667;23;20075;-78
2023/06/09 11:28:55;;;;;;;3.70;2.50;;;31.30;64.10;;;;;;6213882;23;20005;-79
2023/06/09 11:31:22;;;;;;;4.25;2.58;;;31.60;62.90;;;;;;6215164;23;20031;-78
2023/06/09 11:33:55;;;;;;;4.15;3.33;;;32.00;62.30;;;;;;6215591;23;20323;-78
2023/06/09 11:36:27;;;;;;;3.60;2.30;;;32.40;61.70;;;;;;6215823;23;20059;-78
2023/06/09 11:39:01;;;;;;;3.28;2.65;;;32.70;62.30;;;;;;6215935;23;20050;-79
2023/06/09 11:41:29;;;;;;;5.03;3.47;;;33.10;62.20;;;;;;6215687;23;20020;-79
2023/06/09 11:43:57;;;;;;;3.55;2.92;;;33.30;61.80;;;;;;6216042;23;20347;-79
2023/06/09 11:46:23;;;;;;;4.38;3.00;;;33.50;61.60;;;;;;6215640;23;20000;-79
2023/06/09 11:49:01;;;;;;;5.15;2.97;;;33.70;61.60;;;;;;6214657;23;20012;-79
2023/06/09 11:51:28;;;;;;;5.35;3.40;;;33.90;61.40;;;;;;6214816;23;20005;-77
2023/06/09 11:53:55;;;;;;;5.35;3.65;;;34.20;61.30;;;;;;6215013;23;20001;-77
2023/06/09 11:56:22;;;;;;;3.63;3.22;;;34.40;61.40;;;;;;6213548;23;20303;-77
2023/06/09 11:58:54;;;;;;;3.50;2.80;;;34.60;60.70;;;;;;6215639;23;20162;-77
2023/06/09 12:01:23;;;;;;;11.80;3.75;;;34.70;60.70;;;;;;6213404;23;20416;-76
2023/06/09 12:03:50;;;;;;;7.85;3.35;;;34.90;60.40;;;;;;6215480;23;20008;-76
2023/06/09 12:06:17;;;;;;;3.28;2.78;;;35.00;60.50;;;;;;6215218;23;20012;-77
2023/06/09 12:08:43;;;;;;;4.40;3.47;;;35.10;60.20;;;;;;6214604;23;20304;-78
2023/06/09 12:11:16;;;;;;;6.18;4.00;;;35.20;59.00;;;;;;6215160;23;20015;-78
2023/06/09 12:13:47;;;;;;;5.22;3.60;;;35.30;57.50;;;;;;6214877;23;20001;-78
2023/06/09 12:16:13;;;;;;;3.67;3.38;;;35.20;56.50;;;;;;6213590;23;20672;-77
2023/06/09 12:18:40;;;;;;;4.38;3.97;;;35.30;56.80;;;;;;6212626;23;20001;-78
2023/06/09 12:21:09;;;;;;;7.28;4.95;;;35.40;56.80;;;;;;6185055;23;20016;-82
2023/06/09 12:23:36;;;;;;;5.75;3.95;;;35.30;57.20;;;;;;6214567;23;20056;-82
2023/06/09 12:26:07;;;;;;;4.47;4.07;;;35.10;55.70;;;;;;6187577;23;20058;-80
2023/06/09 12:28:34;;;;;;;4.68;4.07;;;34.90;56.10;;;;;;6213595;23;20189;-82
2023/06/09 12:31:13;;;;;;;4.13;3.78;;;35.00;55.60;;;;;;6214608;23;20458;-82
2023/06/09 12:33:52;;;;;;;3.88;3.53;;;35.10;55.10;;;;;;6188418;23;20312;-80
2023/06/09 12:36:18;;;;;;;4.30;3.90;;;35.20;55.30;;;;;;6216201;23;20455;-81
2023/06/09 12:38:45;;;;;;;4.75;4.28;;;35.30;55.20;;;;;;6216436;23;20284;-81
2023/06/09 12:41:13;;;;;;;3.53;3.22;;;35.30;55.00;;;;;;6190254;23;20011;-80
2023/06/09 12:43:59;;;;;;;3.60;3.30;;;35.40;56.00;;;;;;6217055;23;20012;-80
2023/06/09 12:46:40;;;;;;;6.03;4.05;;;35.60;56.10;;;;;;6190041;23;20383;-80
2023/06/09 12:49:13;;;;;;;4.85;3.83;;;35.70;55.40;;;;;;6189467;23;20016;-80
2023/06/09 12:51:40;;;;;;;4.45;4.05;;;35.80;54.80;;;;;;6189582;23;20063;-81
2023/06/09 12:54:08;;;;;;;4.82;4.10;;;35.90;54.50;;;;;;6217790;23;20013;-81